Ana Sayfa
METAR-TAF:

METAR-TAF

Havaalanları :

Belmar / Farmingdale, New Jersey, Amerika Birleşik Devletleri

Enlem: 40-11N, Boylam: 074-08W, yükseklik: 48 m

Güncel hava durumu gözlemi

Rapor saat 23:56 UTC de 34 dakika önce yapıldı.
Rüzgar batıdan 26 kt ve 36 kt'a kadar ani rüzgarlar
Sıcaklık 1°C
Nem 37%
Basınç 1009 hPa
Görüş mesafesi: 16.1 km
Açık gökyüzü

METAR: KBLM 272356Z AUTO 27026G36KT 10SM CLR 01/M12 A2980 RMK AO2 PK WND 28036/2349 SLP092 T00061122 10056 20006 53048 FZRANO

Saat: 19:30 (00:30 UTC)


TAF: eksik

4.000'den fazla havaalanı için hava durumu gözlemleri ve tahminleri (METAR ve TAF raporları).

Kullanılabilir istasyonlar harita üzerinde sarı ve kırmızı noktalarla gösterilir.

İstasyonun adını görmek için fareyi noktanın üzerinde gezdirin.

Sonrasında hava gözlem ve tahminlerini görmek için tıklayın.

Haritayı değiştirmek için: yaklaştırmak için siyah artı işaretli yeşil düğmeye ve uzaklaştırmak için de eksi işaretli düğmeye hızla tıklayın; bitişik haritalar için yeşil okları kullanın.


METAR-TAF: